sensor_id;sensor_type;location;lat;lon;timestamp;pressure;altitude;pressure_sealevel;temperature;humidity
11878;BME280;5998;42.676;23.268;2022-10-01T00:01:54;95254.91;;;14.58;100.00
11878;BME280;5998;42.676;23.268;2022-10-01T00:04:22;95273.06;;;14.73;100.00
11878;BME280;5998;42.676;23.268;2022-10-01T00:06:49;95243.28;;;14.57;100.00
11878;BME280;5998;42.676;23.268;2022-10-01T00:09:15;95261.69;;;14.67;100.00
11878;BME280;5998;42.676;23.268;2022-10-01T00:11:42;95269.56;;;14.72;100.00
11878;BME280;5998;42.676;23.268;2022-10-01T00:14:10;95252.44;;;14.68;100.00
11878;BME280;5998;42.676;23.268;2022-10-01T00:16:37;95268.00;;;14.71;100.00
11878;BME280;5998;42.676;23.268;2022-10-01T00:19:03;95261.78;;;14.71;100.00
11878;BME280;5998;42.676;23.268;2022-10-01T00:21:31;95260.16;;;14.51;100.00
11878;BME280;5998;42.676;23.268;2022-10-01T00:23:59;95274.69;;;14.58;100.00
11878;BME280;5998;42.676;23.268;2022-10-01T00:26:29;95256.41;;;14.55;100.00
11878;BME280;5998;42.676;23.268;2022-10-01T00:28:58;95256.94;;;14.45;100.00
11878;BME280;5998;42.676;23.268;2022-10-01T00:31:27;95268.56;;;14.46;100.00
11878;BME280;5998;42.676;23.268;2022-10-01T00:33:54;95257.13;;;14.52;100.00
11878;BME280;5998;42.676;23.268;2022-10-01T00:36:22;95256.94;;;14.30;100.00
11878;BME280;5998;42.676;23.268;2022-10-01T00:38:49;95266.50;;;14.39;100.00
11878;BME280;5998;42.676;23.268;2022-10-01T00:41:17;95263.06;;;14.42;100.00
11878;BME280;5998;42.676;23.268;2022-10-01T00:43:46;95260.53;;;14.49;100.00
11878;BME280;5998;42.676;23.268;2022-10-01T00:46:18;95249.88;;;14.41;100.00
11878;BME280;5998;42.676;23.268;2022-10-01T00:48:53;95257.41;;;14.47;100.00
11878;BME280;5998;42.676;23.268;2022-10-01T00:51:23;95258.94;;;14.48;100.00
11878;BME280;5998;42.676;23.268;2022-10-01T00:53:52;95260.44;;;14.46;100.00
11878;BME280;5998;42.676;23.268;2022-10-01T00:56:21;95261.25;;;14.46;100.00
11878;BME280;5998;42.676;23.268;2022-10-01T00:58:48;95258.09;;;14.44;100.00
11878;BME280;5998;42.676;23.268;2022-10-01T01:01:18;95262.81;;;14.47;100.00
11878;BME280;5998;42.676;23.268;2022-10-01T01:03:45;95257.41;;;14.47;100.00
11878;BME280;5998;42.676;23.268;2022-10-01T01:06:13;95246.63;;;14.51;100.00
11878;BME280;5998;42.676;23.268;2022-10-01T01:08:40;95238.84;;;14.49;100.00
11878;BME280;5998;42.676;23.268;2022-10-01T01:11:13;95239.69;;;14.53;100.00
11878;BME280;5998;42.676;23.268;2022-10-01T01:13:49;95226.53;;;14.52;100.00
11878;BME280;5998;42.676;23.268;2022-10-01T01:16:25;95230.13;;;14.40;100.00
11878;BME280;5998;42.676;23.268;2022-10-01T01:19:00;95233.72;;;14.44;100.00
11878;BME280;5998;42.676;23.268;2022-10-01T01:21:31;95238.69;;;14.42;100.00
11878;BME280;5998;42.676;23.268;2022-10-01T01:27:13;95240.69;;;14.30;100.00
11878;BME280;5998;42.676;23.268;2022-10-01T01:29:50;95239.25;;;14.16;100.00
11878;BME280;5998;42.676;23.268;2022-10-01T01:32:22;95235.50;;;14.05;100.00
11878;BME280;5998;42.676;23.268;2022-10-01T01:34:54;95257.84;;;14.18;100.00
11878;BME280;5998;42.676;23.268;2022-10-01T01:37:25;95230.84;;;14.22;100.00
11878;BME280;5998;42.676;23.268;2022-10-01T01:39:55;95256.88;;;14.42;100.00
11878;BME280;5998;42.676;23.268;2022-10-01T01:42:26;95254.75;;;14.51;100.00
11878;BME280;5998;42.676;23.268;2022-10-01T01:44:58;95241.00;;;14.59;100.00
11878;BME280;5998;42.676;23.268;2022-10-01T01:47:28;95248.31;;;14.74;100.00
11878;BME280;5998;42.676;23.268;2022-10-01T01:49:57;95234.06;;;14.77;100.00
11878;BME280;5998;42.676;23.268;2022-10-01T01:52:27;95249.22;;;14.63;100.00
11878;BME280;5998;42.676;23.268;2022-10-01T01:54:56;95229.81;;;14.61;100.00
11878;BME280;5998;42.676;23.268;2022-10-01T01:57:23;95230.88;;;14.75;100.00
11878;BME280;5998;42.676;23.268;2022-10-01T01:59:52;95236.59;;;14.70;100.00
11878;BME280;5998;42.676;23.268;2022-10-01T02:02:23;95239.09;;;14.60;100.00
11878;BME280;5998;42.676;23.268;2022-10-01T02:04:53;95249.28;;;14.47;100.00
11878;BME280;5998;42.676;23.268;2022-10-01T02:07:53;95263.78;;;14.39;100.00
11878;BME280;5998;42.676;23.268;2022-10-01T02:10:35;95261.41;;;14.38;100.00
11878;BME280;5998;42.676;23.268;2022-10-01T02:13:17;95274.34;;;14.44;100.00
11878;BME280;5998;42.676;23.268;2022-10-01T02:15:56;95266.06;;;14.37;100.00
11878;BME280;5998;42.676;23.268;2022-10-01T02:18:31;95257.88;;;14.34;100.00
11878;BME280;5998;42.676;23.268;2022-10-01T02:21:05;95266.19;;;14.29;100.00
11878;BME280;5998;42.676;23.268;2022-10-01T02:23:40;95268.59;;;13.99;100.00
11878;BME280;5998;42.676;23.268;2022-10-01T02:26:13;95267.03;;;13.98;100.00
11878;BME280;5998;42.676;23.268;2022-10-01T02:28:42;95273.56;;;13.97;100.00
11878;BME280;5998;42.676;23.268;2022-10-01T02:31:11;95261.44;;;13.91;100.00
11878;BME280;5998;42.676;23.268;2022-10-01T02:33:42;95275.16;;;13.98;100.00
11878;BME280;5998;42.676;23.268;2022-10-01T02:36:12;95277.22;;;14.04;100.00
11878;BME280;5998;42.676;23.268;2022-10-01T02:38:42;95279.63;;;14.06;100.00
11878;BME280;5998;42.676;23.268;2022-10-01T02:41:12;95285.88;;;14.10;100.00
11878;BME280;5998;42.676;23.268;2022-10-01T02:43:46;95276.91;;;14.06;100.00
11878;BME280;5998;42.676;23.268;2022-10-01T02:46:20;95290.34;;;14.18;100.00
11878;BME280;5998;42.676;23.268;2022-10-01T02:48:50;95281.94;;;14.23;100.00
11878;BME280;5998;42.676;23.268;2022-10-01T02:51:24;95290.16;;;14.27;100.00
11878;BME280;5998;42.676;23.268;2022-10-01T02:53:57;95300.56;;;14.40;100.00
11878;BME280;5998;42.676;23.268;2022-10-01T02:56:27;95297.16;;;14.43;100.00
11878;BME280;5998;42.676;23.268;2022-10-01T02:59:11;95287.13;;;14.28;100.00
11878;BME280;5998;42.676;23.268;2022-10-01T03:01:38;95284.41;;;14.28;100.00
11878;BME280;5998;42.676;23.268;2022-10-01T03:04:06;95286.06;;;14.17;100.00
11878;BME280;5998;42.676;23.268;2022-10-01T03:06:33;95291.28;;;14.26;100.00
11878;BME280;5998;42.676;23.268;2022-10-01T03:09:00;95291.50;;;14.33;100.00
11878;BME280;5998;42.676;23.268;2022-10-01T03:11:27;95283.47;;;14.36;100.00
11878;BME280;5998;42.676;23.268;2022-10-01T03:13:54;95281.41;;;14.84;100.00
11878;BME280;5998;42.676;23.268;2022-10-01T03:16:21;95280.38;;;14.88;100.00
11878;BME280;5998;42.676;23.268;2022-10-01T03:18:47;95284.44;;;14.63;100.00
11878;BME280;5998;42.676;23.268;2022-10-01T03:21:15;95283.03;;;14.69;100.00
11878;BME280;5998;42.676;23.268;2022-10-01T03:23:42;95273.00;;;14.54;100.00
11878;BME280;5998;42.676;23.268;2022-10-01T03:26:09;95291.13;;;14.34;100.00
11878;BME280;5998;42.676;23.268;2022-10-01T03:28:36;95306.78;;;14.41;100.00
11878;BME280;5998;42.676;23.268;2022-10-01T03:31:04;95295.50;;;14.39;100.00
11878;BME280;5998;42.676;23.268;2022-10-01T03:33:31;95318.66;;;14.52;100.00
11878;BME280;5998;42.676;23.268;2022-10-01T03:35:57;95314.81;;;14.53;100.00
11878;BME280;5998;42.676;23.268;2022-10-01T03:38:25;95308.47;;;14.64;100.00
11878;BME280;5998;42.676;23.268;2022-10-01T03:40:52;95288.06;;;14.51;100.00
11878;BME280;5998;42.676;23.268;2022-10-01T03:43:19;95288.66;;;14.60;100.00
11878;BME280;5998;42.676;23.268;2022-10-01T03:45:45;95288.19;;;14.39;100.00
11878;BME280;5998;42.676;23.268;2022-10-01T03:48:12;95300.47;;;14.52;100.00
11878;BME280;5998;42.676;23.268;2022-10-01T03:50:39;95286.75;;;14.45;100.00
11878;BME280;5998;42.676;23.268;2022-10-01T03:53:06;95262.22;;;14.23;100.00
11878;BME280;5998;42.676;23.268;2022-10-01T03:55:34;95292.63;;;14.47;100.00
11878;BME280;5998;42.676;23.268;2022-10-01T03:58:00;95275.47;;;14.43;100.00
11878;BME280;5998;42.676;23.268;2022-10-01T04:00:27;95269.63;;;14.41;100.00
11878;BME280;5998;42.676;23.268;2022-10-01T04:02:54;95240.59;;;14.26;100.00
11878;BME280;5998;42.676;23.268;2022-10-01T04:05:21;95263.44;;;14.25;100.00
11878;BME280;5998;42.676;23.268;2022-10-01T04:07:49;95264.31;;;14.13;100.00
11878;BME280;5998;42.676;23.268;2022-10-01T04:10:16;95241.25;;;14.04;100.00
11878;BME280;5998;42.676;23.268;2022-10-01T04:12:44;95276.03;;;14.33;100.00
11878;BME280;5998;42.676;23.268;2022-10-01T04:15:11;95283.16;;;14.26;100.00
11878;BME280;5998;42.676;23.268;2022-10-01T04:17:38;95293.28;;;14.29;100.00
11878;BME280;5998;42.676;23.268;2022-10-01T04:20:05;95300.75;;;14.32;100.00
11878;BME280;5998;42.676;23.268;2022-10-01T04:22:37;95298.50;;;14.34;100.00
11878;BME280;5998;42.676;23.268;2022-10-01T04:25:06;95286.94;;;14.37;100.00
11878;BME280;5998;42.676;23.268;2022-10-01T04:27:34;95286.88;;;14.33;100.00
11878;BME280;5998;42.676;23.268;2022-10-01T04:30:03;95271.03;;;14.35;100.00
11878;BME280;5998;42.676;23.268;2022-10-01T04:32:30;95263.38;;;14.06;100.00
11878;BME280;5998;42.676;23.268;2022-10-01T04:34:56;95270.34;;;14.23;100.00
11878;BME280;5998;42.676;23.268;2022-10-01T04:37:23;95276.97;;;14.25;100.00
11878;BME280;5998;42.676;23.268;2022-10-01T04:39:51;95278.63;;;14.30;100.00
11878;BME280;5998;42.676;23.268;2022-10-01T04:42:18;95265.44;;;14.28;100.00
11878;BME280;5998;42.676;23.268;2022-10-01T04:44:45;95264.94;;;14.23;100.00
11878;BME280;5998;42.676;23.268;2022-10-01T04:47:13;95280.81;;;14.40;100.00
11878;BME280;5998;42.676;23.268;2022-10-01T04:49:40;95281.00;;;14.47;100.00
11878;BME280;5998;42.676;23.268;2022-10-01T04:52:07;95288.84;;;14.52;100.00
11878;BME280;5998;42.676;23.268;2022-10-01T04:54:33;95274.09;;;14.49;100.00
11878;BME280;5998;42.676;23.268;2022-10-01T04:57:00;95303.19;;;14.52;100.00
11878;BME280;5998;42.676;23.268;2022-10-01T04:59:26;95291.56;;;14.52;100.00
11878;BME280;5998;42.676;23.268;2022-10-01T05:01:53;95312.97;;;14.57;100.00
11878;BME280;5998;42.676;23.268;2022-10-01T05:04:21;95305.44;;;14.66;100.00
11878;BME280;5998;42.676;23.268;2022-10-01T05:06:48;95321.78;;;14.54;100.00
11878;BME280;5998;42.676;23.268;2022-10-01T05:09:15;95324.75;;;14.64;100.00
11878;BME280;5998;42.676;23.268;2022-10-01T05:11:41;95323.84;;;14.76;100.00
11878;BME280;5998;42.676;23.268;2022-10-01T05:14:09;95326.78;;;14.87;100.00
11878;BME280;5998;42.676;23.268;2022-10-01T05:16:36;95322.72;;;14.77;100.00
11878;BME280;5998;42.676;23.268;2022-10-01T05:19:03;95305.81;;;14.84;100.00
11878;BME280;5998;42.676;23.268;2022-10-01T05:21:32;95311.13;;;14.96;100.00
11878;BME280;5998;42.676;23.268;2022-10-01T05:23:59;95284.00;;;14.96;100.00
11878;BME280;5998;42.676;23.268;2022-10-01T05:26:26;95314.84;;;15.07;100.00
11878;BME280;5998;42.676;23.268;2022-10-01T05:28:53;95303.56;;;15.05;100.00
11878;BME280;5998;42.676;23.268;2022-10-01T05:31:20;95299.22;;;15.19;100.00
11878;BME280;5998;42.676;23.268;2022-10-01T05:33:48;95316.00;;;15.25;100.00
11878;BME280;5998;42.676;23.268;2022-10-01T05:36:14;95323.53;;;15.51;100.00
11878;BME280;5998;42.676;23.268;2022-10-01T05:38:43;95313.50;;;15.35;100.00
11878;BME280;5998;42.676;23.268;2022-10-01T05:41:10;95319.31;;;15.53;100.00
11878;BME280;5998;42.676;23.268;2022-10-01T05:43:37;95296.97;;;15.82;100.00
11878;BME280;5998;42.676;23.268;2022-10-01T05:46:04;95274.22;;;16.36;100.00
11878;BME280;5998;42.676;23.268;2022-10-01T05:48:30;95267.06;;;16.50;100.00
11878;BME280;5998;42.676;23.268;2022-10-01T05:50:58;95277.69;;;16.59;100.00
11878;BME280;5998;42.676;23.268;2022-10-01T05:53:27;95263.16;;;16.74;100.00
11878;BME280;5998;42.676;23.268;2022-10-01T05:55:55;95256.19;;;16.77;100.00
11878;BME280;5998;42.676;23.268;2022-10-01T05:58:24;95264.09;;;16.85;100.00
11878;BME280;5998;42.676;23.268;2022-10-01T06:00:53;95271.19;;;16.93;100.00
11878;BME280;5998;42.676;23.268;2022-10-01T06:03:20;95280.19;;;16.97;100.00
11878;BME280;5998;42.676;23.268;2022-10-01T06:05:47;95289.84;;;16.95;100.00
11878;BME280;5998;42.676;23.268;2022-10-01T06:08:14;95293.19;;;17.11;100.00
11878;BME280;5998;42.676;23.268;2022-10-01T06:10:40;95290.28;;;17.27;100.00
11878;BME280;5998;42.676;23.268;2022-10-01T06:13:09;95292.34;;;17.37;100.00
11878;BME280;5998;42.676;23.268;2022-10-01T06:15:42;95305.00;;;17.22;100.00
11878;BME280;5998;42.676;23.268;2022-10-01T06:18:11;95309.28;;;16.67;100.00
11878;BME280;5998;42.676;23.268;2022-10-01T06:20:38;95316.06;;;16.54;100.00
11878;BME280;5998;42.676;23.268;2022-10-01T06:23:06;95321.47;;;17.03;100.00
11878;BME280;5998;42.676;23.268;2022-10-01T06:25:35;95322.19;;;17.30;100.00
11878;BME280;5998;42.676;23.268;2022-10-01T06:28:03;95324.59;;;17.35;100.00
11878;BME280;5998;42.676;23.268;2022-10-01T06:30:34;95332.25;;;17.26;100.00
11878;BME280;5998;42.676;23.268;2022-10-01T06:33:01;95342.72;;;17.24;100.00
11878;BME280;5998;42.676;23.268;2022-10-01T06:35:29;95311.13;;;17.45;100.00
11878;BME280;5998;42.676;23.268;2022-10-01T06:37:56;95306.81;;;17.78;100.00
11878;BME280;5998;42.676;23.268;2022-10-01T06:40:23;95299.03;;;18.16;100.00
11878;BME280;5998;42.676;23.268;2022-10-01T06:42:50;95307.88;;;18.47;100.00
11878;BME280;5998;42.676;23.268;2022-10-01T06:45:17;95300.72;;;18.79;100.00
11878;BME280;5998;42.676;23.268;2022-10-01T06:47:52;95274.09;;;19.20;100.00
11878;BME280;5998;42.676;23.268;2022-10-01T06:50:19;95283.59;;;19.54;100.00
11878;BME280;5998;42.676;23.268;2022-10-01T06:52:46;95282.72;;;19.32;100.00
11878;BME280;5998;42.676;23.268;2022-10-01T06:55:16;95296.75;;;19.34;100.00
11878;BME280;5998;42.676;23.268;2022-10-01T06:57:42;95281.22;;;19.38;100.00
11878;BME280;5998;42.676;23.268;2022-10-01T07:00:10;95277.31;;;19.43;100.00
11878;BME280;5998;42.676;23.268;2022-10-01T07:02:37;95280.03;;;19.43;100.00
11878;BME280;5998;42.676;23.268;2022-10-01T07:05:06;95284.00;;;19.53;100.00
11878;BME280;5998;42.676;23.268;2022-10-01T07:07:35;95295.00;;;19.74;100.00
11878;BME280;5998;42.676;23.268;2022-10-01T07:10:04;95327.09;;;20.19;100.00
11878;BME280;5998;42.676;23.268;2022-10-01T07:12:31;95330.69;;;20.37;100.00
11878;BME280;5998;42.676;23.268;2022-10-01T07:14:58;95326.41;;;20.68;100.00
11878;BME280;5998;42.676;23.268;2022-10-01T07:17:25;95321.72;;;20.51;100.00
11878;BME280;5998;42.676;23.268;2022-10-01T07:19:52;95320.53;;;20.70;100.00
11878;BME280;5998;42.676;23.268;2022-10-01T07:22:20;95299.41;;;20.84;100.00
11878;BME280;5998;42.676;23.268;2022-10-01T07:24:48;95306.09;;;20.66;100.00
11878;BME280;5998;42.676;23.268;2022-10-01T07:27:16;95304.09;;;20.70;100.00
11878;BME280;5998;42.676;23.268;2022-10-01T07:29:43;95294.69;;;21.06;100.00
11878;BME280;5998;42.676;23.268;2022-10-01T07:32:09;95277.00;;;21.39;100.00
11878;BME280;5998;42.676;23.268;2022-10-01T07:34:37;95263.69;;;21.37;100.00
11878;BME280;5998;42.676;23.268;2022-10-01T07:37:05;95259.72;;;21.56;100.00
11878;BME280;5998;42.676;23.268;2022-10-01T07:39:33;95267.84;;;21.70;100.00
11878;BME280;5998;42.676;23.268;2022-10-01T07:42:00;95279.38;;;22.13;100.00
11878;BME280;5998;42.676;23.268;2022-10-01T07:44:27;95267.78;;;22.43;100.00
11878;BME280;5998;42.676;23.268;2022-10-01T07:46:55;95267.66;;;22.60;100.00
11878;BME280;5998;42.676;23.268;2022-10-01T07:49:21;95268.78;;;22.66;100.00
11878;BME280;5998;42.676;23.268;2022-10-01T07:51:49;95281.41;;;22.57;100.00
11878;BME280;5998;42.676;23.268;2022-10-01T07:54:16;95276.28;;;22.59;100.00
11878;BME280;5998;42.676;23.268;2022-10-01T07:56:46;95284.97;;;22.50;100.00
11878;BME280;5998;42.676;23.268;2022-10-01T07:59:13;95295.78;;;22.20;100.00
11878;BME280;5998;42.676;23.268;2022-10-01T08:01:40;95280.63;;;21.98;100.00
11878;BME280;5998;42.676;23.268;2022-10-01T08:04:07;95280.31;;;21.85;100.00
11878;BME280;5998;42.676;23.268;2022-10-01T08:06:48;95274.03;;;21.85;100.00
11878;BME280;5998;42.676;23.268;2022-10-01T08:09:15;95261.63;;;21.62;100.00
11878;BME280;5998;42.676;23.268;2022-10-01T08:11:42;95258.19;;;21.37;100.00
11878;BME280;5998;42.676;23.268;2022-10-01T08:14:11;95244.47;;;21.44;100.00
11878;BME280;5998;42.676;23.268;2022-10-01T08:16:37;95231.69;;;21.13;100.00
11878;BME280;5998;42.676;23.268;2022-10-01T08:19:06;95253.97;;;21.26;100.00
11878;BME280;5998;42.676;23.268;2022-10-01T08:21:33;95223.06;;;21.22;100.00
11878;BME280;5998;42.676;23.268;2022-10-01T08:24:00;95225.47;;;20.98;100.00
11878;BME280;5998;42.676;23.268;2022-10-01T08:26:27;95244.22;;;21.10;100.00
11878;BME280;5998;42.676;23.268;2022-10-01T08:28:54;95214.09;;;20.96;100.00
11878;BME280;5998;42.676;23.268;2022-10-01T08:31:22;95229.78;;;20.89;100.00
11878;BME280;5998;42.676;23.268;2022-10-01T08:33:49;95258.28;;;21.02;100.00
11878;BME280;5998;42.676;23.268;2022-10-01T08:36:16;95231.72;;;20.95;100.00
11878;BME280;5998;42.676;23.268;2022-10-01T08:38:44;95223.09;;;21.04;100.00
11878;BME280;5998;42.676;23.268;2022-10-01T08:41:19;95232.09;;;21.01;100.00
11878;BME280;5998;42.676;23.268;2022-10-01T08:43:49;95226.63;;;21.08;100.00
11878;BME280;5998;42.676;23.268;2022-10-01T08:46:18;95223.09;;;21.11;100.00
11878;BME280;5998;42.676;23.268;2022-10-01T08:48:50;95212.53;;;20.99;100.00
11878;BME280;5998;42.676;23.268;2022-10-01T08:51:25;95237.63;;;20.80;100.00
11878;BME280;5998;42.676;23.268;2022-10-01T08:53:55;95234.50;;;20.81;100.00
11878;BME280;5998;42.676;23.268;2022-10-01T08:56:28;95217.34;;;20.38;100.00
11878;BME280;5998;42.676;23.268;2022-10-01T08:58:57;95245.50;;;20.39;100.00
11878;BME280;5998;42.676;23.268;2022-10-01T09:01:25;95241.22;;;20.38;100.00
11878;BME280;5998;42.676;23.268;2022-10-01T09:03:54;95239.25;;;20.31;100.00
11878;BME280;5998;42.676;23.268;2022-10-01T09:06:22;95242.75;;;20.21;100.00
11878;BME280;5998;42.676;23.268;2022-10-01T09:09:01;95262.66;;;20.18;100.00
11878;BME280;5998;42.676;23.268;2022-10-01T09:11:45;95288.81;;;20.12;100.00
11878;BME280;5998;42.676;23.268;2022-10-01T09:14:28;95323.19;;;20.06;100.00
11878;BME280;5998;42.676;23.268;2022-10-01T09:17:04;95329.03;;;19.94;100.00
11878;BME280;5998;42.676;23.268;2022-10-01T09:20:02;95331.38;;;19.99;100.00
11878;BME280;5998;42.676;23.268;2022-10-01T09:22:36;95323.19;;;19.99;100.00
11878;BME280;5998;42.676;23.268;2022-10-01T09:25:11;95331.34;;;19.95;100.00
11878;BME280;5998;42.676;23.268;2022-10-01T09:27:39;95332.16;;;19.96;100.00
11878;BME280;5998;42.676;23.268;2022-10-01T09:30:10;95330.97;;;19.97;100.00
11878;BME280;5998;42.676;23.268;2022-10-01T09:32:41;95343.03;;;19.89;100.00
11878;BME280;5998;42.676;23.268;2022-10-01T09:35:19;95342.25;;;19.85;100.00
11878;BME280;5998;42.676;23.268;2022-10-01T09:37:54;95349.63;;;19.74;100.00
11878;BME280;5998;42.676;23.268;2022-10-01T09:40:26;95350.75;;;19.55;100.00
11878;BME280;5998;42.676;23.268;2022-10-01T09:42:59;95362.38;;;19.45;100.00
11878;BME280;5998;42.676;23.268;2022-10-01T09:45:26;95339.66;;;19.30;100.00
11878;BME280;5998;42.676;23.268;2022-10-01T09:47:56;95290.72;;;18.97;100.00
11878;BME280;5998;42.676;23.268;2022-10-01T09:50:30;95316.09;;;19.05;100.00
11878;BME280;5998;42.676;23.268;2022-10-01T09:53:01;95304.47;;;19.15;100.00
11878;BME280;5998;42.676;23.268;2022-10-01T09:55:31;95284.94;;;19.13;100.00
11878;BME280;5998;42.676;23.268;2022-10-01T09:58:03;95250.59;;;19.05;100.00
11878;BME280;5998;42.676;23.268;2022-10-01T10:00:36;95278.19;;;18.89;100.00
11878;BME280;5998;42.676;23.268;2022-10-01T10:03:03;95261.81;;;18.85;100.00
11878;BME280;5998;42.676;23.268;2022-10-01T10:05:39;95272.75;;;18.89;100.00
11878;BME280;5998;42.676;23.268;2022-10-01T10:08:12;95283.31;;;18.98;100.00
11878;BME280;5998;42.676;23.268;2022-10-01T10:10:48;95279.00;;;18.93;100.00
11878;BME280;5998;42.676;23.268;2022-10-01T10:13:18;95277.16;;;19.11;100.00
11878;BME280;5998;42.676;23.268;2022-10-01T10:15:50;95269.75;;;19.15;100.00
11878;BME280;5998;42.676;23.268;2022-10-01T10:18:27;95306.38;;;19.07;100.00
11878;BME280;5998;42.676;23.268;2022-10-01T10:20:57;95298.16;;;19.04;100.00
11878;BME280;5998;42.676;23.268;2022-10-01T10:23:24;95279.53;;;19.16;100.00
11878;BME280;5998;42.676;23.268;2022-10-01T10:25:54;95273.28;;;19.16;100.00
11878;BME280;5998;42.676;23.268;2022-10-01T10:28:22;95273.28;;;19.16;100.00
11878;BME280;5998;42.676;23.268;2022-10-01T10:30:51;95257.63;;;19.09;100.00
11878;BME280;5998;42.676;23.268;2022-10-01T10:33:19;95288.34;;;18.96;100.00
11878;BME280;5998;42.676;23.268;2022-10-01T10:35:57;95305.59;;;19.07;100.00
11878;BME280;5998;42.676;23.268;2022-10-01T10:38:29;95311.41;;;19.02;100.00
11878;BME280;5998;42.676;23.268;2022-10-01T10:40:58;95315.97;;;18.83;100.00
11878;BME280;5998;42.676;23.268;2022-10-01T10:43:27;95292.97;;;18.84;100.00
11878;BME280;5998;42.676;23.268;2022-10-01T10:45:56;95244.13;;;18.62;100.00
11878;BME280;5998;42.676;23.268;2022-10-01T10:48:27;95272.72;;;18.85;100.00
11878;BME280;5998;42.676;23.268;2022-10-01T10:51:00;95268.00;;;18.82;100.00
11878;BME280;5998;42.676;23.268;2022-10-01T10:53:34;95278.56;;;18.84;100.00
11878;BME280;5998;42.676;23.268;2022-10-01T10:56:05;95261.06;;;18.92;100.00
11878;BME280;5998;42.676;23.268;2022-10-01T10:58:33;95268.13;;;19.04;100.00
11878;BME280;5998;42.676;23.268;2022-10-01T11:01:10;95252.16;;;19.06;100.00
11878;BME280;5998;42.676;23.268;2022-10-01T11:03:43;95250.19;;;18.99;100.00
11878;BME280;5998;42.676;23.268;2022-10-01T11:06:15;95260.44;;;19.20;100.00
11878;BME280;5998;42.676;23.268;2022-10-01T11:08:44;95252.25;;;19.27;100.00
11878;BME280;5998;42.676;23.268;2022-10-01T11:11:34;95242.50;;;19.29;100.00
11878;BME280;5998;42.676;23.268;2022-10-01T11:14:17;95217.94;;;19.29;100.00
11878;BME280;5998;42.676;23.268;2022-10-01T11:17:07;95212.81;;;19.17;100.00
11878;BME280;5998;42.676;23.268;2022-10-01T11:19:47;95205.44;;;19.28;100.00
11878;BME280;5998;42.676;23.268;2022-10-01T11:22:34;95175.78;;;19.16;100.00
11878;BME280;5998;42.676;23.268;2022-10-01T11:25:21;95185.03;;;18.94;100.00
11878;BME280;5998;42.676;23.268;2022-10-01T11:27:56;95178.75;;;18.83;100.00
11878;BME280;5998;42.676;23.268;2022-10-01T11:30:30;95223.66;;;19.00;100.00
11878;BME280;5998;42.676;23.268;2022-10-01T11:33:05;95206.91;;;18.98;100.00
11878;BME280;5998;42.676;23.268;2022-10-01T11:35:47;95196.09;;;19.22;100.00
11878;BME280;5998;42.676;23.268;2022-10-01T11:41:19;95183.66;;;19.42;100.00
11878;BME280;5998;42.676;23.268;2022-10-01T11:43:51;95162.06;;;19.02;100.00
11878;BME280;5998;42.676;23.268;2022-10-01T11:46:42;95145.38;;;19.25;100.00
11878;BME280;5998;42.676;23.268;2022-10-01T11:49:35;95146.16;;;19.29;100.00
11878;BME280;5998;42.676;23.268;2022-10-01T11:52:11;95147.72;;;19.26;100.00
11878;BME280;5998;42.676;23.268;2022-10-01T11:54:49;95127.50;;;19.49;100.00
11878;BME280;5998;42.676;23.268;2022-10-01T11:57:18;95142.34;;;19.62;100.00
11878;BME280;5998;42.676;23.268;2022-10-01T12:00:06;95143.13;;;19.97;100.00
11878;BME280;5998;42.676;23.268;2022-10-01T12:02:39;95141.56;;;20.07;100.00
11878;BME280;5998;42.676;23.268;2022-10-01T12:05:13;95150.13;;;20.16;100.00
11878;BME280;5998;42.676;23.268;2022-10-01T12:07:46;95131.41;;;20.18;100.00
11878;BME280;5998;42.676;23.268;2022-10-01T12:10:23;95143.09;;;20.22;100.00
11878;BME280;5998;42.676;23.268;2022-10-01T12:12:56;95125.56;;;20.27;100.00
11878;BME280;5998;42.676;23.268;2022-10-01T12:15:29;95124.00;;;20.29;100.00
11878;BME280;5998;42.676;23.268;2022-10-01T12:18:02;95112.66;;;20.24;100.00
11878;BME280;5998;42.676;23.268;2022-10-01T12:20:33;95117.34;;;20.34;100.00
11878;BME280;5998;42.676;23.268;2022-10-01T12:23:04;95119.31;;;20.30;100.00
11878;BME280;5998;42.676;23.268;2022-10-01T12:25:40;95128.28;;;20.30;100.00
11878;BME280;5998;42.676;23.268;2022-10-01T12:28:12;95117.31;;;20.51;100.00
11878;BME280;5998;42.676;23.268;2022-10-01T12:30:44;95097.69;;;20.64;100.00
11878;BME280;5998;42.676;23.268;2022-10-01T12:33:35;95087.47;;;20.78;100.00
11878;BME280;5998;42.676;23.268;2022-10-01T12:36:14;95103.13;;;20.74;100.00
11878;BME280;5998;42.676;23.268;2022-10-01T12:38:58;95119.97;;;20.73;100.00
11878;BME280;5998;42.676;23.268;2022-10-01T12:41:39;95124.22;;;20.77;100.00
11878;BME280;5998;42.676;23.268;2022-10-01T12:44:33;95098.06;;;20.76;100.00
11878;BME280;5998;42.676;23.268;2022-10-01T12:47:10;95137.53;;;20.79;100.00
11878;BME280;5998;42.676;23.268;2022-10-01T12:49:44;95120.41;;;20.50;100.00
11878;BME280;5998;42.676;23.268;2022-10-01T12:52:19;95136.84;;;20.43;100.00
11878;BME280;5998;42.676;23.268;2022-10-01T12:55:00;95140.38;;;20.43;100.00
11878;BME280;5998;42.676;23.268;2022-10-01T12:57:43;95101.69;;;20.41;100.00
11878;BME280;5998;42.676;23.268;2022-10-01T13:00:16;95107.94;;;20.38;100.00
11878;BME280;5998;42.676;23.268;2022-10-01T13:03:09;95021.97;;;20.36;100.00
11878;BME280;5998;42.676;23.268;2022-10-01T13:05:45;94897.91;;;20.01;100.00
11878;BME280;5998;42.676;23.268;2022-10-01T13:08:29;95008.00;;;20.06;100.00
11878;BME280;5998;42.676;23.268;2022-10-01T13:11:04;95017.78;;;19.99;100.00
11878;BME280;5998;42.676;23.268;2022-10-01T13:13:38;95018.91;;;20.09;100.00
11878;BME280;5998;42.676;23.268;2022-10-01T13:16:11;95027.91;;;20.13;100.00